Time;durP1;ratioP1;P1;durP2;ratioP2;P2;SDS_P1;SDS_P2;PMS_P1;PMS_P2;Temp;Humidity;BMP_temperature;BMP_pressure;BME280_temperature;BME280_humidity;BME280_pressure;Samples;Min_cycle;Max_cycle;Signal;HPM_P1;HPM_P2
2023/03/24 00:00:25;;;;;;;8.60;6.60;;;;;;;14.67;68.55;98397.69;109665;1251;69115;-79
2023/03/24 00:03:15;;;;;;;7.70;6.30;;;;;;;14.65;68.54;98398.40;109645;1251;66253;-78
2023/03/24 00:05:43;;;;;;;;;;;;;;;14.64;68.59;98399.77;109367;1251;59899;-78
2023/03/24 00:08:10;;;;;;;8.40;6.10;;;;;;;14.62;68.70;98396.94;109584;1251;59960;-80
2023/03/24 00:10:36;;;;;;;13.40;6.70;;;;;;;14.60;68.77;98396.09;109606;1251;67614;-79
2023/03/24 00:13:04;;;;;;;9.10;6.50;;;;;;;14.57;68.88;98395.64;109480;1251;59757;-79
2023/03/24 00:15:32;;;;;;;9.00;7.00;;;;;;;14.54;68.91;98396.28;109599;1251;65113;-80
2023/03/24 00:17:59;;;;;;;9.80;7.60;;;;;;;14.51;69.04;98395.23;109630;1250;59863;-79
2023/03/24 00:20:27;;;;;;;11.90;7.70;;;;;;;14.49;69.22;98393.98;109684;1251;59785;-80
2023/03/24 00:22:58;;;;;;;11.20;7.60;;;;;;;14.47;69.19;98391.49;109966;1250;67578;-80
2023/03/24 00:25:34;;;;;;;;;;;;;;;14.45;69.28;98391.30;109811;1250;60031;-81
2023/03/24 00:28:02;;;;;;;11.80;7.80;;;;;;;14.43;69.34;98392.27;109539;1251;64152;-81
2023/03/24 00:30:28;;;;;;;11.20;7.70;;;;;;;14.42;69.38;98391.95;109404;1251;59836;-80
2023/03/24 00:32:57;;;;;;;12.20;7.20;;;;;;;14.42;69.40;98389.49;109677;1251;59653;-80
2023/03/24 00:35:24;;;;;;;9.90;7.80;;;;;;;14.40;69.49;98385.73;109678;1251;66496;-79
2023/03/24 00:37:50;;;;;;;10.40;7.90;;;;;;;14.39;69.51;98383.34;109623;1250;60081;-80
2023/03/24 00:40:19;;;;;;;10.90;7.80;;;;;;;14.37;69.56;98378.46;109300;1251;64159;-80
2023/03/24 00:42:48;;;;;;;11.90;7.40;;;;;;;14.37;69.80;98376.69;109634;1251;59805;-80
2023/03/24 00:45:21;;;;;;;12.30;8.00;;;;;;;14.38;69.87;98375.71;109625;1251;59926;-80
2023/03/24 00:47:52;;;;;;;10.80;7.80;;;;;;;14.39;69.76;98373.60;109645;1250;67482;-79
2023/03/24 00:50:25;;;;;;;9.70;8.00;;;;;;;14.39;69.93;98368.08;109630;1250;59921;-80
2023/03/24 00:52:53;;;;;;;9.70;7.00;;;;;;;14.39;69.93;98364.75;109549;1251;65442;-80
2023/03/24 00:55:20;;;;;;;11.70;7.90;;;;;;;14.38;70.10;98363.10;109586;1250;59818;-80
2023/03/24 00:57:49;;;;;;;11.20;7.00;;;;;;;14.37;69.95;98357.08;109638;1251;60189;-80
2023/03/24 01:00:23;;;;;;;10.30;7.20;;;;;;;14.36;70.07;98356.97;109637;1250;73824;-80
2023/03/24 01:02:54;;;;;;;7.10;6.20;;;;;;;14.35;70.23;98351.88;109644;1251;60917;-80
2023/03/24 01:05:22;;;;;;;8.10;6.80;;;;;;;14.35;70.34;98348.45;109597;1251;64362;-79
2023/03/24 01:07:52;;;;;;;9.20;6.40;;;;;;;14.34;70.43;98346.92;109587;1250;59728;-80
2023/03/24 01:10:24;;;;;;;9.40;6.50;;;;;;;14.34;70.63;98344.33;109654;1250;59773;-80
2023/03/24 01:12:54;;;;;;;8.50;5.90;;;;;;;14.33;70.74;98342.39;109581;1250;68043;-80
2023/03/24 01:15:25;;;;;;;10.00;6.70;;;;;;;14.34;70.84;98339.96;109643;1250;60923;-78
2023/03/24 01:17:52;;;;;;;11.60;7.00;;;;;;;14.34;70.87;98338.06;109563;1250;63760;-79
2023/03/24 01:20:21;;;;;;;8.20;6.10;;;;;;;14.34;70.87;98335.91;109622;1251;59899;-79
2023/03/24 01:22:49;;;;;;;8.20;6.60;;;;;;;14.34;70.93;98333.04;109674;1251;59834;-79
2023/03/24 01:25:22;;;;;;;7.40;5.50;;;;;;;14.34;70.93;98330.50;109655;1251;67828;-79
2023/03/24 01:27:50;;;;;;;8.90;6.70;;;;;;;14.35;71.05;98324.55;109610;1250;60796;-79
2023/03/24 01:30:25;;;;;;;10.90;6.80;;;;;;;14.36;71.12;98321.25;109611;1251;63879;-79
2023/03/24 01:32:52;;;;;;;9.30;5.80;;;;;;;14.36;71.12;98322.12;109612;1251;59722;-79
2023/03/24 01:35:20;;;;;;;8.10;6.10;;;;;;;14.35;71.08;98321.45;109635;1251;59703;-79
2023/03/24 01:37:47;;;;;;;9.40;6.30;;;;;;;14.35;71.26;98316.83;109577;1251;67214;-79
2023/03/24 01:40:23;;;;;;;9.20;6.50;;;;;;;14.35;71.28;98315.58;109652;1250;61165;-79
2023/03/24 01:42:50;;;;;;;10.20;6.40;;;;;;;14.36;71.48;98318.20;109651;1251;63692;-79
2023/03/24 01:45:38;;;;;;;9.50;6.40;;;;;;;14.36;71.40;98316.59;109612;1250;59652;-79
2023/03/24 01:48:09;;;;;;;6.70;5.50;;;;;;;14.36;71.52;98318.00;109694;1250;59874;-80
2023/03/24 01:50:37;;;;;;;7.70;5.50;;;;;;;14.35;71.66;98315.77;109698;1250;66765;-78
2023/03/24 01:53:03;;;;;;;8.40;5.70;;;;;;;14.35;71.83;98314.92;109721;1250;59734;-78
2023/03/24 01:55:31;;;;;;;7.30;5.80;;;;;;;14.35;71.80;98316.52;109726;1250;63628;-79
2023/03/24 01:58:01;;;;;;;7.90;5.70;;;;;;;14.34;71.90;98313.52;109616;1250;59806;-80
2023/03/24 02:00:29;;;;;;;8.10;5.90;;;;;;;14.35;72.00;98314.89;109665;1250;59758;-78
2023/03/24 02:03:06;;;;;;;6.20;5.40;;;;;;;14.35;72.07;98307.59;109374;1251;66542;-79
2023/03/24 02:05:36;;;;;;;7.70;5.30;;;;;;;14.34;72.03;98307.50;109680;1250;60778;-79
2023/03/24 02:08:17;;;;;;;6.60;5.20;;;;;;;14.32;72.14;98304.99;109622;1250;64994;-79
2023/03/24 02:10:45;;;;;;;8.70;5.90;;;;;;;14.29;72.29;98301.50;109627;1250;59780;-79
2023/03/24 02:13:11;;;;;;;9.70;5.80;;;;;;;14.25;72.32;98300.20;109590;1251;59817;-79
2023/03/24 02:15:54;;;;;;;9.60;5.50;;;;;;;14.23;72.30;98300.61;109676;1250;67521;-79
2023/03/24 02:18:51;;;;;;;7.60;5.20;;;;;;;14.21;72.22;98298.66;109453;1250;60735;-78
2023/03/24 02:21:41;;;;;;;7.90;5.90;;;;;;;14.18;72.41;98301.59;109640;1250;64217;-79
2023/03/24 02:24:46;;;;;;;8.00;6.20;;;;;;;14.15;72.48;98302.21;108991;1257;59748;-80
2023/03/24 02:27:44;;;;;;;8.30;6.20;;;;;;;14.12;72.53;98300.78;108724;1262;59864;-78
2023/03/24 02:30:25;;;;;;;6.90;5.80;;;;;;;14.08;72.75;98296.50;108719;1263;66777;-79
2023/03/24 02:33:06;;;;;;;8.90;7.00;;;;;;;14.05;72.96;98290.67;108727;1263;60131;-79
2023/03/24 02:35:54;;;;;;;9.10;7.00;;;;;;;14.02;73.21;98287.54;108729;1263;64770;-79
2023/03/24 02:38:30;;;;;;;8.30;6.30;;;;;;;14.00;73.24;98282.40;108712;1263;59789;-79
2023/03/24 02:41:03;;;;;;;11.50;6.80;;;;;;;13.97;73.68;98277.66;108682;1264;60099;-79
2023/03/24 02:44:01;;;;;;;7.90;6.20;;;;;;;13.94;73.84;98279.39;108708;1263;66504;-80
2023/03/24 02:46:53;;;;;;;6.30;5.60;;;;;;;13.90;73.81;98278.13;108280;1268;60010;-79
2023/03/24 02:49:40;;;;;;;6.30;5.70;;;;;;;13.88;74.09;98276.43;108424;1268;65276;-79
2023/03/24 02:52:10;;;;;;;7.70;5.90;;;;;;;13.84;74.50;98274.63;108440;1268;59853;-79
2023/03/24 02:54:56;;;;;;;7.70;5.90;;;;;;;13.80;74.54;98269.58;108433;1268;59857;-79
2023/03/24 02:57:30;;;;;;;7.90;6.90;;;;;;;13.78;74.70;98270.61;108439;1268;66836;-79
2023/03/24 03:03:18;;;;;;;7.10;5.70;;;;;;;13.74;75.30;98271.77;108113;1271;65245;-78
2023/03/24 03:05:52;;;;;;;6.40;5.80;;;;;;;13.72;75.73;98273.72;108496;1266;59848;-79
2023/03/24 03:08:21;;;;;;;8.00;6.00;;;;;;;13.69;76.06;98271.13;108580;1266;59753;-79
2023/03/24 03:10:49;;;;;;;8.30;7.20;;;;;;;13.68;76.26;98271.99;108549;1266;66974;-79
2023/03/24 03:13:26;;;;;;;7.80;7.00;;;;;;;13.67;76.32;98268.17;108572;1265;61098;-78
2023/03/24 03:15:56;;;;;;;7.60;6.90;;;;;;;13.65;76.55;98265.44;108531;1265;64065;-79
2023/03/24 03:18:30;;;;;;;8.50;7.70;;;;;;;13.63;76.73;98264.39;108533;1265;59920;-79
2023/03/24 03:21:06;;;;;;;9.20;8.10;;;;;;;13.62;76.95;98261.64;108558;1265;59825;-79
2023/03/24 03:23:37;;;;;;;11.20;7.90;;;;;;;13.60;76.95;98260.49;108775;1258;66616;-79
2023/03/24 03:26:11;;;;;;;9.00;8.10;;;;;;;13.59;77.16;98261.00;108986;1258;60744;-79
2023/03/24 03:28:48;;;;;;;11.20;8.50;;;;;;;13.58;77.42;98260.91;108970;1258;65016;-79
2023/03/24 03:31:22;;;;;;;10.70;8.80;;;;;;;13.56;77.76;98256.27;108942;1258;59825;-78
2023/03/24 03:33:59;;;;;;;10.90;8.80;;;;;;;13.54;77.75;98257.52;108989;1259;59874;-78
2023/03/24 03:36:31;;;;;;;12.00;9.70;;;;;;;13.53;77.89;98254.75;108981;1258;67841;-78
2023/03/24 03:39:14;;;;;;;10.40;9.40;;;;;;;13.53;78.03;98248.35;109052;1258;60822;-79
2023/03/24 03:41:42;;;;;;;11.80;10.60;;;;;;;13.52;78.08;98245.02;109614;1250;64843;-79
2023/03/24 03:44:09;;;;;;;14.20;9.30;;;;;;;13.52;78.12;98245.41;109619;1250;59857;-79
2023/03/24 03:46:36;;;;;;;13.50;9.80;;;;;;;13.51;78.07;98245.67;109617;1250;60073;-79
2023/03/24 03:49:05;;;;;;;12.90;10.10;;;;;;;13.50;78.20;98243.23;109637;1250;67845;-79
2023/03/24 03:51:33;;;;;;;11.80;9.90;;;;;;;13.49;78.36;98245.63;109557;1250;60212;-79
2023/03/24 03:54:04;;;;;;;10.90;9.70;;;;;;;13.48;78.50;98244.29;109547;1250;64752;-79
2023/03/24 03:56:33;;;;;;;10.30;9.20;;;;;;;13.48;78.54;98248.80;109629;1250;59750;-79
2023/03/24 03:59:00;;;;;;;11.10;9.70;;;;;;;13.47;78.65;98248.87;109643;1250;59689;-80
2023/03/24 04:01:30;;;;;;;11.50;9.90;;;;;;;13.45;78.87;98247.10;109643;1250;66986;-79
2023/03/24 04:04:44;;;;;;;11.80;9.40;;;;;;;13.44;79.19;98243.65;109423;1250;59888;-80
2023/03/24 04:07:23;;;;;;;12.60;10.00;;;;;;;13.42;79.45;98240.61;109611;1250;62541;-79
2023/03/24 04:09:58;;;;;;;10.00;9.10;;;;;;;13.39;79.43;98241.53;109579;1250;59742;-80
2023/03/24 04:12:47;;;;;;;11.40;10.30;;;;;;;13.37;79.82;98242.62;109706;1250;59831;-79
2023/03/24 04:15:44;;;;;;;12.10;10.90;;;;;;;13.35;80.59;98243.17;109642;1250;68148;-79
2023/03/24 04:18:30;;;;;;;13.80;10.20;;;;;;;13.34;80.99;98245.23;109609;1250;60177;-79
2023/03/24 04:21:12;;;;;;;11.10;10.00;;;;;;;13.32;81.56;98245.05;109366;1250;63731;-79
2023/03/24 04:23:53;;;;;;;12.80;11.50;;;;;;;13.30;82.31;98245.92;109336;1250;59858;-80
2023/03/24 04:26:33;;;;;;;13.50;12.10;;;;;;;13.28;83.19;98243.98;109571;1250;59859;-78
2023/03/24 04:29:36;;;;;;;13.60;10.80;;;;;;;13.25;84.42;98241.89;109624;1250;66738;-78
2023/03/24 04:32:18;;;;;;;12.30;11.10;;;;;;;13.21;85.89;98246.77;108937;1257;59874;-80
2023/03/24 04:34:54;;;;;;;11.30;10.30;;;;;;;13.15;87.23;98249.89;109062;1257;65116;-80
2023/03/24 04:37:25;;;;;;;11.40;10.30;;;;;;;13.11;88.14;98257.05;109245;1257;59749;-80
2023/03/24 04:39:57;;;;;;;12.00;10.00;;;;;;;13.07;88.88;98252.82;109129;1257;59929;-81
2023/03/24 04:42:35;;;;;;;13.00;11.00;;;;;;;13.02;90.59;98256.47;109240;1257;66498;-81
2023/03/24 04:45:04;;;;;;;13.10;11.70;;;;;;;12.93;91.64;98259.70;109063;1257;61025;-81
2023/03/24 04:47:41;;;;;;;12.70;11.50;;;;;;;12.89;92.43;98258.80;109052;1257;65482;-81
2023/03/24 04:50:11;;;;;;;13.40;12.10;;;;;;;12.86;93.87;98259.25;108953;1257;59867;-81
2023/03/24 04:52:39;;;;;;;14.20;12.90;;;;;;;12.79;96.44;98261.16;109009;1259;59861;-80
2023/03/24 04:55:31;;;;;;;15.50;13.90;;;;;;;12.70;96.37;98260.66;109052;1257;68032;-81
2023/03/24 04:57:57;;;;;;;15.30;13.80;;;;;;;12.68;97.47;98258.73;108773;1262;60835;-80
2023/03/24 05:00:24;;;;;;;16.20;14.50;;;;;;;12.66;98.54;98257.96;108756;1262;65025;-81
2023/03/24 05:02:51;;;;;;;21.00;19.00;;;;;;;12.65;99.74;98260.24;108759;1262;59818;-80
2023/03/24 05:05:18;;;;;;;20.20;18.20;;;;;;;12.63;100.00;98260.99;108760;1263;60372;-80
2023/03/24 05:07:45;;;;;;;19.50;17.60;;;;;;;12.62;100.00;98260.48;108767;1263;66497;-80
2023/03/24 05:10:11;;;;;;;16.70;15.10;;;;;;;12.66;100.00;98262.97;109022;1258;59871;-80
2023/03/24 05:12:38;;;;;;;17.70;16.00;;;;;;;12.69;100.00;98263.05;108997;1258;65080;-79
2023/03/24 05:15:05;;;;;;;18.30;16.60;;;;;;;12.71;100.00;98265.90;108982;1258;59821;-80
2023/03/24 05:17:33;;;;;;;18.40;16.60;;;;;;;12.71;100.00;98260.38;108923;1259;59716;-80
2023/03/24 05:20:00;;;;;;;19.00;16.90;;;;;;;12.71;100.00;98260.40;108991;1258;67773;-81
2023/03/24 05:22:29;;;;;;;18.20;16.40;;;;;;;12.71;100.00;98262.60;108991;1258;61077;-81
2023/03/24 05:24:56;;;;;;;19.20;17.40;;;;;;;12.70;100.00;98262.66;108978;1258;64812;-81
2023/03/24 05:27:23;;;;;;;21.00;18.90;;;;;;;12.67;100.00;98259.35;108965;1258;60120;-80
2023/03/24 05:29:49;;;;;;;21.90;19.70;;;;;;;12.64;100.00;98259.06;108876;1259;59925;-81
2023/03/24 05:32:16;;;;;;;22.00;19.70;;;;;;;12.64;100.00;98265.11;108972;1258;67846;-80
2023/03/24 05:34:42;;;;;;;23.50;20.90;;;;;;;12.65;100.00;98266.16;109186;1253;60858;-80
2023/03/24 05:37:11;;;;;;;22.20;20.00;;;;;;;12.65;100.00;98268.73;109439;1252;64826;-80
2023/03/24 05:39:38;;;;;;;22.00;19.60;;;;;;;12.69;100.00;98270.05;109505;1251;59858;-81
2023/03/24 05:42:05;;;;;;;22.50;20.40;;;;;;;12.73;100.00;98270.97;109475;1250;59886;-80
2023/03/24 05:44:32;;;;;;;20.80;18.60;;;;;;;12.76;100.00;98269.95;109609;1250;66800;-81
2023/03/24 05:46:58;;;;;;;20.40;18.50;;;;;;;12.79;100.00;98270.26;109605;1250;59739;-81
2023/03/24 05:49:25;;;;;;;21.00;19.00;;;;;;;12.80;100.00;98270.83;109636;1250;64858;-80
2023/03/24 05:51:52;;;;;;;18.90;17.10;;;;;;;12.83;100.00;98270.48;109578;1250;59920;-81
2023/03/24 05:54:18;;;;;;;20.00;18.10;;;;;;;12.85;100.00;98268.29;109553;1250;59912;-82
2023/03/24 05:56:45;;;;;;;21.20;18.00;;;;;;;12.87;100.00;98266.86;109592;1250;67517;-81
2023/03/24 05:59:11;;;;;;;21.00;18.80;;;;;;;12.89;100.00;98265.06;109462;1250;60119;-80
2023/03/24 06:01:38;;;;;;;20.30;18.30;;;;;;;12.92;100.00;98265.33;109585;1250;64039;-79
2023/03/24 06:04:05;;;;;;;19.90;18.00;;;;;;;12.96;100.00;98265.01;109644;1250;59763;-81
2023/03/24 06:06:31;;;;;;;20.80;18.90;;;;;;;12.99;100.00;98262.79;109657;1250;59768;-81
2023/03/24 06:09:01;;;;;;;20.30;18.30;;;;;;;13.01;100.00;98262.23;109341;1250;68006;-79
2023/03/24 06:11:28;;;;;;;25.10;22.50;;;;;;;13.03;100.00;98263.14;109621;1250;60774;-81
2023/03/24 06:13:59;;;;;;;26.10;23.50;;;;;;;13.05;100.00;98260.84;109599;1250;64992;-81
2023/03/24 06:16:26;;;;;;;26.50;24.00;;;;;;;13.07;100.00;98261.91;109574;1250;60027;-80
2023/03/24 06:18:52;;;;;;;28.20;25.40;;;;;;;13.09;100.00;98261.02;109568;1250;59890;-80
2023/03/24 06:21:20;;;;;;;30.90;27.60;;;;;;;13.12;100.00;98258.89;109358;1250;67918;-80
2023/03/24 06:23:47;;;;;;;42.80;38.90;;;;;;;13.20;100.00;98256.63;109615;1250;60724;-80
2023/03/24 06:26:15;;;;;;;39.80;35.90;;;;;;;13.31;100.00;98254.63;109630;1250;63712;-80
2023/03/24 06:28:42;;;;;;;37.00;33.60;;;;;;;13.45;100.00;98252.45;109615;1250;60065;-80
2023/03/24 06:31:18;;;;;;;34.20;31.10;;;;;;;13.60;100.00;98251.56;109635;1250;59916;-80
2023/03/24 06:33:46;;;;;;;31.20;28.10;;;;;;;13.77;100.00;98247.76;109608;1250;68360;-80
2023/03/24 06:36:13;;;;;;;34.10;30.60;;;;;;;13.94;100.00;98244.67;109591;1250;59788;-80
2023/03/24 06:38:41;;;;;;;31.10;28.10;;;;;;;14.14;100.00;98245.20;109576;1250;64168;-80
2023/03/24 06:41:07;;;;;;;32.60;26.50;;;;;;;14.33;100.00;98245.70;109581;1250;59779;-80
2023/03/24 06:43:34;;;;;;;30.40;26.50;;;;;;;14.53;100.00;98247.46;109631;1250;59871;-80
2023/03/24 06:46:01;;;;;;;27.30;24.40;;;;;;;14.72;100.00;98250.28;109642;1250;66814;-81
2023/03/24 06:48:28;;;;;;;26.70;24.30;;;;;;;14.90;100.00;98245.92;109400;1250;60770;-78
2023/03/24 06:50:55;;;;;;;24.80;22.50;;;;;;;15.08;100.00;98249.96;109640;1250;63966;-80
2023/03/24 06:53:36;;;;;;;24.50;22.00;;;;;;;15.28;100.00;98247.03;109653;1250;59843;-80
2023/03/24 06:56:03;;;;;;;23.60;21.30;;;;;;;15.44;100.00;98247.23;109628;1251;59923;-81
2023/03/24 06:58:30;;;;;;;25.30;22.70;;;;;;;15.56;100.00;98243.50;109741;1250;67505;-80
2023/03/24 07:00:57;;;;;;;23.90;21.50;;;;;;;15.67;100.00;98240.86;109712;1250;60232;-81
2023/03/24 07:03:24;;;;;;;24.20;21.70;;;;;;;15.75;100.00;98237.73;109378;1250;63755;-81
2023/03/24 07:05:51;;;;;;;24.10;21.60;;;;;;;15.82;100.00;98234.65;109619;1250;59708;-79
2023/03/24 07:08:18;;;;;;;22.50;20.30;;;;;;;15.91;100.00;98232.70;109719;1250;59772;-80
2023/03/24 07:10:44;;;;;;;18.90;17.10;;;;;;;15.98;100.00;98232.10;109643;1250;67826;-80
2023/03/24 07:13:11;;;;;;;17.90;16.10;;;;;;;16.04;100.00;98235.53;109686;1250;61174;-80
2023/03/24 07:15:38;;;;;;;17.20;15.50;;;;;;;16.08;100.00;98237.02;109643;1250;63719;-80
2023/03/24 07:18:05;;;;;;;16.30;14.60;;;;;;;16.15;100.00;98233.07;109618;1250;59796;-79
2023/03/24 07:20:32;;;;;;;14.70;13.10;;;;;;;16.26;100.00;98229.82;109612;1250;59645;-79
2023/03/24 07:22:58;;;;;;;16.80;14.90;;;;;;;16.41;100.00;98229.04;109607;1250;67633;-79
2023/03/24 07:25:25;;;;;;;14.60;13.20;;;;;;;16.56;100.00;98227.95;109693;1250;59985;-79
2023/03/24 07:27:54;;;;;;;14.60;12.50;;;;;;;16.72;100.00;98229.02;109678;1250;64209;-80
2023/03/24 07:30:22;;;;;;;13.80;12.40;;;;;;;16.87;100.00;98227.48;109630;1250;59897;-80
2023/03/24 07:32:49;;;;;;;11.00;10.00;;;;;;;17.01;100.00;98220.67;109672;1250;59802;-80
2023/03/24 07:35:16;;;;;;;11.00;9.90;;;;;;;17.17;100.00;98215.13;109366;1250;67980;-78
2023/03/24 07:37:43;;;;;;;10.40;9.40;;;;;;;17.35;100.00;98207.98;109696;1250;61088;-80
2023/03/24 07:40:12;;;;;;;10.60;9.50;;;;;;;17.51;100.00;98203.19;109635;1250;65261;-79
2023/03/24 07:42:40;;;;;;;10.50;9.40;;;;;;;17.69;100.00;98199.84;109438;1250;59886;-79
2023/03/24 07:45:11;;;;;;;9.80;8.80;;;;;;;17.88;100.00;98196.03;109711;1250;59988;-80
2023/03/24 07:47:43;;;;;;;10.40;9.00;;;;;;;18.04;98.91;98192.98;109298;1250;67033;-80
2023/03/24 07:50:10;;;;;;;12.10;9.50;;;;;;;18.20;97.74;98192.23;109710;1250;61545;-80
2023/03/24 07:52:45;;;;;;;9.90;9.10;;;;;;;18.32;96.22;98186.45;109712;1250;63813;-80
2023/03/24 07:55:12;;;;;;;9.20;8.00;;;;;;;18.46;95.04;98182.41;109629;1250;59816;-79
2023/03/24 07:57:45;;;;;;;9.30;8.40;;;;;;;18.64;93.61;98177.64;109629;1250;59846;-80
2023/03/24 08:00:18;;;;;;;9.40;8.60;;;;;;;18.82;92.05;98173.80;109631;1250;67116;-81
2023/03/24 08:02:51;;;;;;;8.80;8.10;;;;;;;19.00;90.84;98173.39;109665;1250;59802;-80
2023/03/24 08:05:19;;;;;;;9.30;8.30;;;;;;;19.16;89.83;98172.63;109587;1250;65176;-78
2023/03/24 08:07:52;;;;;;;8.80;7.90;;;;;;;19.29;88.40;98170.27;109575;1250;59873;-79
2023/03/24 08:10:24;;;;;;;8.80;7.90;;;;;;;19.39;87.48;98166.14;109468;1250;59780;-79
2023/03/24 08:12:52;;;;;;;8.50;7.70;;;;;;;19.47;86.40;98164.38;109661;1250;66823;-79
2023/03/24 08:15:19;;;;;;;8.90;8.10;;;;;;;19.50;85.18;98163.61;109672;1250;61097;-79
2023/03/24 08:17:48;;;;;;;8.80;7.70;;;;;;;19.52;84.75;98157.03;109605;1250;65468;-79
2023/03/24 08:20:15;;;;;;;9.00;7.80;;;;;;;19.62;84.30;98151.52;109619;1250;59801;-79
2023/03/24 08:22:44;;;;;;;9.00;8.20;;;;;;;19.79;83.05;98148.00;109650;1250;60010;-80
2023/03/24 08:25:12;;;;;;;9.30;8.50;;;;;;;19.99;81.53;98145.55;109680;1250;68187;-80
2023/03/24 08:27:39;;;;;;;8.80;8.00;;;;;;;20.22;80.39;98140.70;109657;1250;59792;-80
2023/03/24 08:30:09;;;;;;;9.10;8.20;;;;;;;20.49;79.22;98140.23;109421;1250;64189;-80
2023/03/24 08:32:36;;;;;;;8.30;7.60;;;;;;;20.74;78.42;98133.97;109607;1250;59909;-79
2023/03/24 08:35:03;;;;;;;8.10;7.30;;;;;;;20.98;77.51;98128.71;109374;1250;60055;-79
2023/03/24 08:37:30;;;;;;;8.90;8.10;;;;;;;21.17;76.55;98128.30;109610;1250;66629;-85
2023/03/24 08:39:57;;;;;;;10.00;9.10;;;;;;;21.32;75.24;98123.39;109607;1250;61241;-76
2023/03/24 08:42:24;;;;;;;8.40;7.60;;;;;;;21.44;74.07;98120.21;109561;1250;64787;-75
2023/03/24 08:44:51;;;;;;;9.10;8.20;;;;;;;21.55;72.67;98121.30;109637;1252;59738;-82
2023/03/24 08:47:18;;;;;;;11.40;7.80;;;;;;;21.62;72.01;98124.84;109596;1250;59808;-74
2023/03/24 08:49:45;;;;;;;9.20;8.20;;;;;;;21.77;70.86;98123.79;109567;1250;66661;-76
2023/03/24 08:52:11;;;;;;;9.20;8.30;;;;;;;21.91;68.91;98122.48;109362;1250;60890;-76
2023/03/24 08:54:38;;;;;;;8.50;7.70;;;;;;;22.04;68.02;98121.33;109716;1250;64020;-84
2023/03/24 08:57:05;;;;;;;9.50;7.50;;;;;;;22.13;67.28;98114.80;109743;1250;59777;-75
2023/03/24 08:59:31;;;;;;;8.90;8.10;;;;;;;22.25;66.82;98110.15;109641;1250;59678;-76
2023/03/24 09:01:58;;;;;;;8.50;7.80;;;;;;;22.40;66.38;98107.32;109672;1250;67530;-76
2023/03/24 09:04:25;;;;;;;8.90;8.00;;;;;;;22.55;65.50;98105.83;109691;1250;60919;-77
2023/03/24 09:06:52;;;;;;;9.20;8.20;;;;;;;22.62;63.99;98099.30;109615;1250;64834;-76
2023/03/24 09:09:19;;;;;;;8.50;7.60;;;;;;;22.75;64.26;98097.48;109585;1250;59712;-76
2023/03/24 09:11:47;;;;;;;9.00;8.10;;;;;;;22.91;63.63;98092.44;109622;1250;59833;-75
2023/03/24 09:14:14;;;;;;;9.50;8.50;;;;;;;23.04;62.98;98087.85;109643;1250;67731;-77
2023/03/24 09:16:42;;;;;;;15.40;8.50;;;;;;;23.07;61.89;98079.85;109653;1250;59826;-75
2023/03/24 09:19:09;;;;;;;8.80;7.90;;;;;;;23.07;61.25;98076.26;109623;1250;63653;-76
2023/03/24 09:21:37;;;;;;;8.50;7.70;;;;;;;23.13;60.86;98077.94;109577;1250;59835;-75
2023/03/24 09:24:04;;;;;;;8.40;7.60;;;;;;;23.11;59.75;98072.08;109607;1250;59852;-75
2023/03/24 09:26:32;;;;;;;10.60;7.20;;;;;;;23.00;58.55;98068.48;109612;1250;66743;-75
2023/03/24 09:28:59;;;;;;;8.30;7.50;;;;;;;22.82;55.88;98063.60;109606;1249;59997;-75
2023/03/24 09:31:26;;;;;;;6.80;6.20;;;;;;;22.71;56.29;98065.36;109636;1250;63854;-75
2023/03/24 09:33:52;;;;;;;6.90;6.20;;;;;;;22.77;56.27;98064.38;109597;1250;59818;-75
2023/03/24 09:36:19;;;;;;;7.90;7.10;;;;;;;22.82;55.91;98063.48;109305;1250;59840;-75
2023/03/24 09:38:46;;;;;;;7.40;6.70;;;;;;;22.88;55.52;98065.30;109631;1250;67933;-75
2023/03/24 09:41:17;;;;;;;8.00;7.20;;;;;;;23.00;55.34;98064.06;109632;1250;60710;-75
2023/03/24 09:43:53;;;;;;;7.80;7.10;;;;;;;23.13;54.73;98064.77;109645;1250;64936;-75
2023/03/24 09:46:29;;;;;;;7.60;6.90;;;;;;;23.21;54.80;98069.16;109653;1250;60114;-75
2023/03/24 09:48:56;;;;;;;8.50;7.20;;;;;;;23.28;54.45;98069.77;109595;1250;59838;-76
2023/03/24 09:51:30;;;;;;;8.00;7.40;;;;;;;23.32;53.68;98070.15;109635;1250;67894;-81
2023/03/24 09:54:16;;;;;;;8.30;7.20;;;;;;;23.23;52.93;98072.48;109530;1250;60878;-76
2023/03/24 09:56:46;;;;;;;8.80;7.80;;;;;;;23.05;50.83;98066.50;109630;1250;64790;-75
2023/03/24 09:59:17;;;;;;;8.80;7.60;;;;;;;22.79;50.83;98056.56;109640;1250;59792;-76
2023/03/24 10:01:44;;;;;;;7.90;7.10;;;;;;;22.78;52.08;98050.51;109643;1250;59913;-76
2023/03/24 10:04:25;;;;;;;9.30;7.00;;;;;;;22.98;52.24;98051.25;109608;1250;67872;-75
2023/03/24 10:07:02;;;;;;;7.40;6.40;;;;;;;23.06;51.13;98046.95;109657;1250;61239;-75
2023/03/24 10:09:33;;;;;;;7.10;6.60;;;;;;;23.05;51.28;98042.77;109351;1250;64084;-74
2023/03/24 10:12:28;;;;;;;7.60;6.90;;;;;;;23.07;50.82;98040.74;109566;1250;60077;-75
2023/03/24 10:15:14;;;;;;;8.30;7.50;;;;;;;23.05;51.06;98037.18;109659;1250;60081;-75
2023/03/24 10:18:03;;;;;;;7.60;6.80;;;;;;;23.12;51.48;98034.98;109620;1250;66602;-75
2023/03/24 10:20:36;;;;;;;7.50;6.70;;;;;;;23.15;50.06;98027.39;109673;1250;61019;-75
2023/03/24 10:23:45;;;;;;;6.80;6.20;;;;;;;23.11;50.64;98025.59;109649;1250;64771;-76
2023/03/24 10:26:36;;;;;;;7.00;6.10;;;;;;;23.10;49.09;98027.38;108989;1260;60062;-75
2023/03/24 10:29:16;;;;;;;5.90;5.30;;;;;;;23.04;50.50;98025.88;109003;1259;59916;-75
2023/03/24 10:31:47;;;;;;;7.30;6.20;;;;;;;23.19;50.82;98024.71;109000;1258;65446;-75
2023/03/24 10:34:14;;;;;;;5.80;5.10;;;;;;;23.33;50.28;98024.72;109027;1258;59797;-75
2023/03/24 10:36:43;;;;;;;5.40;4.50;;;;;;;23.41;50.30;98021.22;108930;1259;65308;-75
2023/03/24 10:39:15;;;;;;;6.30;5.10;;;;;;;23.42;49.08;98021.02;108953;1259;59810;-76
2023/03/24 10:41:44;;;;;;;5.90;5.20;;;;;;;23.35;48.10;98021.71;108910;1258;59863;-75
2023/03/24 10:44:11;;;;;;;;;;;;;;;23.24;48.22;98020.83;109002;1259;67592;-75
2023/03/24 10:46:45;;;;;;;6.90;4.90;;;;;;;23.17;48.31;98016.00;108998;1260;60794;-76
2023/03/24 10:49:13;;;;;;;6.50;4.60;;;;;;;23.15;48.66;98014.84;109010;1259;65084;-76
2023/03/24 10:51:48;;;;;;;6.00;4.70;;;;;;;23.15;48.71;98011.88;108794;1258;233497;-77
2023/03/24 10:54:17;;;;;;;4.90;4.40;;;;;;;23.16;48.30;98010.66;109019;1258;59949;-75
2023/03/24 10:57:14;;;;;;;5.30;4.50;;;;;;;23.08;47.55;98017.67;108974;1258;66906;-76
2023/03/24 10:59:59;;;;;;;6.60;4.50;;;;;;;23.03;47.39;98013.32;109124;1254;59908;-76
2023/03/24 11:02:31;;;;;;;5.40;4.00;;;;;;;22.96;46.46;98006.43;109359;1253;65683;-75
2023/03/24 11:05:01;;;;;;;4.40;4.00;;;;;;;22.81;45.17;98004.46;109550;1251;59717;-74
2023/03/24 11:07:34;;;;;;;5.60;4.40;;;;;;;22.72;45.49;97999.38;109575;1252;59686;-72
2023/03/24 11:10:09;;;;;;;4.60;4.10;;;;;;;22.69;45.68;97998.86;109514;1252;66873;-74
2023/03/24 11:12:41;;;;;;;4.70;3.90;;;;;;;22.64;45.34;97997.69;109572;1253;60993;-73
2023/03/24 11:15:23;;;;;;;4.00;3.60;;;;;;;22.57;45.49;97989.39;109488;1253;65259;-74
2023/03/24 11:17:57;;;;;;;4.10;3.80;;;;;;;22.47;44.99;97986.90;109302;1253;59757;-74
2023/03/24 11:20:32;;;;;;;3.70;3.40;;;;;;;22.36;45.08;97982.38;109589;1252;60194;-74
2023/03/24 11:22:59;;;;;;;5.50;3.90;;;;;;;22.28;45.09;97981.77;109532;1253;66934;-74
2023/03/24 11:25:28;;;;;;;4.60;4.10;;;;;;;22.27;45.65;97977.88;109568;1253;60832;-75
2023/03/24 11:27:59;;;;;;;4.60;4.20;;;;;;;22.33;46.02;97973.73;109537;1251;65667;-76
2023/03/24 11:30:33;;;;;;;4.10;3.70;;;;;;;22.35;45.74;97969.14;109517;1253;59834;-75
2023/03/24 11:33:02;;;;;;;4.00;3.50;;;;;;;22.35;45.94;97965.30;109478;1253;60068;-76
2023/03/24 11:35:30;;;;;;;5.20;4.30;;;;;;;22.37;45.67;97962.88;109508;1253;66838;-76
2023/03/24 11:38:04;;;;;;;7.50;4.40;;;;;;;22.35;45.33;97956.95;109593;1253;60773;-76
2023/03/24 11:40:31;;;;;;;3.80;3.50;;;;;;;22.41;45.64;97953.91;109207;1253;64115;-75